메인 페이지
METAR-TAF:

METAR-TAF

공항 :

파고파고, 미국령 군소 제도

위도: 14-20S, 경도: 170-43W, 고도: 3m

현재 날씨관측

예보는 1 시간 9분 전, 14:50시(UTC)에 발표되었습니다.
여러 방향의 바람 3kt
온도 25°C
습도 89%
기압 1005 hPa
시정: 16.1km
고도 2500ft 상공 구름 조금
고도 10000ft 상공 구름 보통
고도 20000ft 상공 구름 많음

METAR: NSTU 191450Z VRB03KT 10SM FEW025 SCT100 BKN200 25/23 A2967 RMK SLP049 8/178 T02480230 57012

시각: 04:59 (15:59 UTC)

예보

예보는 4 시간 25분 전, 11:34시(UTC)에 발표되었습니다.
예보 대상 시간: 19일 12시부터 20일 12시까지 (UTC)
여러 방향의 바람 5kt
시정: 10km
고도 1900ft 상공 구름 보통
고도 4000ft 상공 구름 보통
고도 10000ft 상공 구름 많음
시계 내 소나기

TAF: NSTU 191134Z 1912/2012 VRB05KT P6SM VCSH SCT019 SCT040 BKN100

4,000개 이상의 공항 관측 자료 및 예보 (METAR 및 TAF 보고).

지도상에서 검색 가능한 기상관측소가 노란 점과 빨간 점으로 표시되어 있습니다.

기상관측소 명을 보려면 표시 위로 마우스를 이동하세요.

날씨 관측과 예보를 보려면 클릭하세요.

지도 변경 : 확대하려면 엑스 표시가 있는 녹색 버튼, 축소하려면 빼기 표시가 있는 녹색 버튼, 다음 페이지의 지도를 보려면 녹색 화살표를 클릭하세요.


METAR-TAF: